Time;durP1;ratioP1;P1;durP2;ratioP2;P2;SDS_P1;SDS_P2;PMS_P1;PMS_P2;Temp;Humidity;BMP_temperature;BMP_pressure;BME280_temperature;BME280_humidity;BME280_pressure;Samples;Min_cycle;Max_cycle;Signal;HPM_P1;HPM_P2
2023/11/18 00:01:11;;;;;;;5.05;2.97;;;;;;;;;;5006846;28;20309;-57
2023/11/18 00:03:37;;;;;;;3.65;2.80;;;;;;;;;;5010766;28;20584;-57
2023/11/18 00:06:03;;;;;;;4.25;3.03;;;;;;;;;;5006668;28;20046;-57
2023/11/18 00:08:30;;;;;;;4.45;3.40;;;;;;;;;;5013015;28;20040;-57
2023/11/18 00:10:56;;;;;;;4.95;3.30;;;;;;;;;;5014961;28;20037;-58
2023/11/18 00:13:23;;;;;;;4.18;3.17;;;;;;;;;;5014108;28;20040;-58
2023/11/18 00:15:49;;;;;;;3.17;2.50;;;;;;;;;;5007866;28;20032;-60
2023/11/18 00:18:15;;;;;;;4.88;2.40;;;;;;;;;;5013536;28;20030;-57
2023/11/18 00:20:42;;;;;;;3.45;2.40;;;;;;;;;;5008004;28;20675;-57
2023/11/18 00:23:09;;;;;;;4.50;2.33;;;;;;;;;;5013141;28;20042;-58
2023/11/18 00:25:36;;;;;;;2.38;1.90;;;;;;;;;;5008141;28;20513;-58
2023/11/18 00:28:02;;;;;;;3.17;1.98;;;;;;;;;;5012359;28;20042;-59
2023/11/18 00:30:28;;;;;;;1.95;1.67;;;;;;;;;;5003478;28;20045;-58
2023/11/18 00:32:54;;;;;;;3.40;1.80;;;;;;;;;;5013546;28;20052;-58
2023/11/18 00:35:20;;;;;;;2.20;1.58;;;;;;;;;;5022399;28;20034;-58
2023/11/18 00:37:47;;;;;;;2.78;1.80;;;;;;;;;;4996720;28;20038;-59
2023/11/18 00:40:14;;;;;;;2.42;2.00;;;;;;;;;;4995492;28;20550;-57
2023/11/18 00:42:40;;;;;;;3.75;1.60;;;;;;;;;;5010141;28;20045;-58
2023/11/18 00:45:07;;;;;;;1.88;1.60;;;;;;;;;;5014337;28;20053;-57
2023/11/18 00:47:34;;;;;;;2.53;1.55;;;;;;;;;;4996456;28;20030;-58
2023/11/18 00:50:02;;;;;;;2.22;1.83;;;;;;;;;;5008384;28;20050;-58
2023/11/18 00:52:28;;;;;;;1.73;1.35;;;;;;;;;;5007890;28;20583;-58
2023/11/18 00:54:54;;;;;;;2.10;1.60;;;;;;;;;;5014280;28;20040;-58
2023/11/18 00:57:21;;;;;;;1.73;1.45;;;;;;;;;;5006561;28;20061;-58
2023/11/18 00:59:47;;;;;;;2.95;1.15;;;;;;;;;;5013098;28;20033;-58
2023/11/18 01:02:13;;;;;;;1.85;1.40;;;;;;;;;;5008995;28;20703;-58
2023/11/18 01:04:39;;;;;;;1.45;1.30;;;;;;;;;;4989639;28;20039;-57
2023/11/18 01:07:05;;;;;;;1.92;1.65;;;;;;;;;;5009827;28;20037;-57
2023/11/18 01:09:36;;;;;;;1.30;1.17;;;;;;;;;;5011718;28;20060;-58
2023/11/18 01:12:03;;;;;;;2.00;1.63;;;;;;;;;;5008804;28;20414;-58
2023/11/18 01:14:29;;;;;;;1.70;1.30;;;;;;;;;;5008132;28;20054;-58
2023/11/18 01:16:55;;;;;;;1.95;1.40;;;;;;;;;;5007994;28;20399;-58
2023/11/18 01:19:21;;;;;;;2.30;1.65;;;;;;;;;;5011178;28;20422;-58
2023/11/18 01:21:48;;;;;;;4.40;1.70;;;;;;;;;;5013958;28;20041;-58
2023/11/18 01:24:15;;;;;;;4.30;1.90;;;;;;;;;;5006485;28;20073;-57
2023/11/18 01:26:42;;;;;;;2.00;1.50;;;;;;;;;;5009508;28;20053;-58
2023/11/18 01:29:08;;;;;;;1.88;1.27;;;;;;;;;;5010804;28;20037;-58
2023/11/18 01:31:34;;;;;;;1.27;1.10;;;;;;;;;;5012783;28;20410;-59
2023/11/18 01:34:00;;;;;;;2.15;1.33;;;;;;;;;;5013345;28;20403;-58
2023/11/18 01:36:26;;;;;;;1.30;1.20;;;;;;;;;;5025310;28;20057;-58
2023/11/18 01:38:55;;;;;;;1.45;1.13;;;;;;;;;;5016493;28;20057;-57
2023/11/18 01:41:21;;;;;;;1.77;1.17;;;;;;;;;;4996098;28;21097;-58
2023/11/18 01:43:47;;;;;;;1.52;1.27;;;;;;;;;;5026773;28;20052;-58
2023/11/18 01:46:14;;;;;;;1.73;1.42;;;;;;;;;;5025119;28;20046;-58
2023/11/18 01:48:41;;;;;;;1.40;1.30;;;;;;;;;;5019283;28;20037;-58
2023/11/18 01:51:12;;;;;;;1.38;1.17;;;;;;;;;;5010946;28;20029;-57
2023/11/18 01:53:39;;;;;;;2.40;1.40;;;;;;;;;;5012277;28;20053;-59
2023/11/18 01:56:08;;;;;;;1.52;1.42;;;;;;;;;;5015955;28;20050;-58
2023/11/18 01:58:35;;;;;;;1.95;1.60;;;;;;;;;;4999173;28;20045;-56
2023/11/18 02:01:10;;;;;;;1.40;1.30;;;;;;;;;;5015568;28;20033;-57
2023/11/18 02:03:38;;;;;;;1.27;1.17;;;;;;;;;;5027281;28;20040;-57
2023/11/18 02:06:05;;;;;;;2.97;1.50;;;;;;;;;;4994325;28;20068;-57
2023/11/18 02:08:35;;;;;;;1.77;1.38;;;;;;;;;;4997048;28;20065;-58
2023/11/18 02:11:32;;;;;;;1.77;1.35;;;;;;;;;;5017832;28;20053;-57
2023/11/18 02:14:04;;;;;;;3.72;1.67;;;;;;;;;;5025459;28;20041;-57
2023/11/18 02:16:31;;;;;;;2.03;1.60;;;;;;;;;;4993642;28;20034;-57
2023/11/18 02:18:59;;;;;;;2.47;1.77;;;;;;;;;;4999499;28;20044;-57
2023/11/18 02:21:27;;;;;;;2.13;1.63;;;;;;;;;;5000845;28;20037;-57
2023/11/18 02:23:53;;;;;;;1.42;1.30;;;;;;;;;;5018779;28;20518;-57
2023/11/18 02:26:23;;;;;;;1.35;1.17;;;;;;;;;;5013133;28;20057;-57
2023/11/18 02:28:49;;;;;;;2.72;1.60;;;;;;;;;;5003827;28;20036;-57
2023/11/18 02:31:27;;;;;;;3.20;1.60;;;;;;;;;;4997904;28;20037;-58
2023/11/18 02:34:12;;;;;;;2.30;1.70;;;;;;;;;;5002398;28;20053;-57
2023/11/18 02:36:47;;;;;;;1.88;1.58;;;;;;;;;;5017315;28;20032;-57
2023/11/18 02:39:42;;;;;;;2.50;1.75;;;;;;;;;;5017648;28;20677;-58
2023/11/18 02:42:12;;;;;;;2.60;1.60;;;;;;;;;;5004153;28;20038;-58
2023/11/18 02:44:38;;;;;;;2.35;1.80;;;;;;;;;;5011967;28;20038;-58
2023/11/18 02:47:05;;;;;;;2.35;1.77;;;;;;;;;;5014679;28;20049;-58
2023/11/18 02:49:34;;;;;;;2.13;1.80;;;;;;;;;;5026212;28;20045;-57
2023/11/18 02:52:00;;;;;;;3.35;1.73;;;;;;;;;;5010457;28;20038;-57
2023/11/18 02:54:26;;;;;;;2.80;1.80;;;;;;;;;;5013782;28;20538;-58
2023/11/18 02:56:52;;;;;;;2.60;1.95;;;;;;;;;;5014122;28;20045;-58
2023/11/18 02:59:18;;;;;;;2.13;1.92;;;;;;;;;;4993943;28;20044;-56
2023/11/18 03:01:44;;;;;;;2.78;2.00;;;;;;;;;;5023869;28;20567;-58
2023/11/18 03:04:10;;;;;;;2.22;1.90;;;;;;;;;;5009736;28;20038;-58
2023/11/18 03:06:37;;;;;;;2.13;1.67;;;;;;;;;;5010926;28;20061;-58
2023/11/18 03:09:07;;;;;;;2.15;1.80;;;;;;;;;;5011956;28;20033;-57
2023/11/18 03:11:33;;;;;;;2.60;1.65;;;;;;;;;;5010436;28;20041;-58
2023/11/18 03:14:00;;;;;;;2.28;1.67;;;;;;;;;;5016169;28;20060;-57
2023/11/18 03:16:27;;;;;;;2.40;1.65;;;;;;;;;;5013796;28;20042;-57
2023/11/18 03:18:54;;;;;;;1.65;1.40;;;;;;;;;;5015452;28;20561;-58
2023/11/18 03:21:21;;;;;;;1.98;1.52;;;;;;;;;;5016263;28;20048;-57
2023/11/18 03:23:47;;;;;;;2.47;1.80;;;;;;;;;;5008960;28;20487;-58
2023/11/18 03:26:13;;;;;;;3.05;1.70;;;;;;;;;;5013231;28;20037;-58
2023/11/18 03:28:40;;;;;;;2.80;2.03;;;;;;;;;;5025735;28;20526;-57
2023/11/18 03:31:06;;;;;;;3.05;1.95;;;;;;;;;;5013778;28;20041;-58
2023/11/18 03:33:33;;;;;;;3.38;2.10;;;;;;;;;;5014379;28;20030;-58
2023/11/18 03:35:59;;;;;;;3.45;2.05;;;;;;;;;;5014700;28;20033;-58
2023/11/18 03:38:27;;;;;;;1.75;1.35;;;;;;;;;;5010414;28;20503;-57
2023/11/18 03:40:53;;;;;;;3.65;1.85;;;;;;;;;;5008887;28;20046;-57
2023/11/18 03:43:19;;;;;;;3.05;1.90;;;;;;;;;;4998881;28;20046;-57
2023/11/18 03:45:46;;;;;;;2.35;1.70;;;;;;;;;;5014897;28;20064;-58
2023/11/18 03:48:14;;;;;;;3.95;1.80;;;;;;;;;;5009159;28;20431;-58
2023/11/18 03:50:44;;;;;;;2.55;1.92;;;;;;;;;;5013878;28;20034;-58
2023/11/18 03:53:10;;;;;;;;;;;;;;;;;;4993022;28;20029;-58
2023/11/18 03:55:36;;;;;;;4.38;1.67;;;;;;;;;;5014033;28;19913;-57
2023/11/18 03:58:02;;;;;;;3.25;1.73;;;;;;;;;;4999786;28;20395;-57
2023/11/18 04:00:29;;;;;;;3.05;1.92;;;;;;;;;;4990803;28;20368;-57
2023/11/18 04:02:57;;;;;;;3.78;2.28;;;;;;;;;;4974868;28;20494;-58
2023/11/18 04:05:23;;;;;;;2.22;1.70;;;;;;;;;;5008785;28;20052;-57
2023/11/18 04:07:49;;;;;;;1.90;1.70;;;;;;;;;;5010493;28;20040;-58
2023/11/18 04:10:15;;;;;;;2.20;1.77;;;;;;;;;;5014377;28;20042;-58
2023/11/18 04:12:42;;;;;;;2.97;1.60;;;;;;;;;;5014416;28;20067;-58
2023/11/18 04:15:08;;;;;;;2.25;1.90;;;;;;;;;;4990487;28;20068;-56
2023/11/18 04:17:34;;;;;;;3.15;1.70;;;;;;;;;;5008893;28;20030;-57
2023/11/18 04:20:00;;;;;;;2.03;1.70;;;;;;;;;;4996276;28;20525;-57
2023/11/18 04:22:26;;;;;;;2.47;1.83;;;;;;;;;;5008720;28;20069;-59
2023/11/18 04:24:53;;;;;;;4.38;2.22;;;;;;;;;;4991190;28;20069;-59
2023/11/18 04:27:19;;;;;;;2.63;1.90;;;;;;;;;;5017597;28;20037;-60
2023/11/18 04:29:48;;;;;;;2.78;1.80;;;;;;;;;;5013101;28;20037;-58
2023/11/18 04:32:15;;;;;;;2.75;1.60;;;;;;;;;;5021960;28;20049;-58
2023/11/18 04:34:42;;;;;;;3.72;1.63;;;;;;;;;;5013940;28;20553;-56
2023/11/18 04:37:08;;;;;;;2.20;1.52;;;;;;;;;;5023580;28;20041;-57
2023/11/18 04:39:35;;;;;;;2.30;1.30;;;;;;;;;;5010137;28;20053;-57
2023/11/18 04:42:01;;;;;;;1.83;1.60;;;;;;;;;;5009317;28;20042;-57
2023/11/18 04:44:27;;;;;;;1.77;1.50;;;;;;;;;;4991920;28;20426;-59
2023/11/18 04:46:53;;;;;;;1.67;1.50;;;;;;;;;;5007659;28;20034;-58
2023/11/18 04:49:19;;;;;;;1.83;1.35;;;;;;;;;;5023091;28;20045;-58
2023/11/18 04:51:45;;;;;;;1.67;1.35;;;;;;;;;;5013430;28;20029;-57
2023/11/18 04:54:11;;;;;;;4.13;1.88;;;;;;;;;;5013314;28;20033;-58
2023/11/18 04:56:37;;;;;;;2.47;1.60;;;;;;;;;;5009584;28;20042;-57
2023/11/18 04:59:06;;;;;;;3.63;1.45;;;;;;;;;;5015946;28;20034;-57
2023/11/18 05:01:32;;;;;;;1.98;1.40;;;;;;;;;;5006856;28;20045;-58
2023/11/18 05:03:59;;;;;;;1.40;1.27;;;;;;;;;;5010169;28;20021;-54
2023/11/18 05:06:26;;;;;;;2.22;1.55;;;;;;;;;;5008718;28;20036;-58
2023/11/18 05:08:52;;;;;;;2.00;1.80;;;;;;;;;;5008882;28;20038;-57
2023/11/18 05:11:18;;;;;;;1.98;1.52;;;;;;;;;;5013058;28;20041;-58
2023/11/18 05:13:45;;;;;;;2.08;1.38;;;;;;;;;;5015777;28;20028;-58
2023/11/18 05:16:11;;;;;;;2.85;1.40;;;;;;;;;;5010748;28;20834;-57
2023/11/18 05:18:38;;;;;;;1.30;1.10;;;;;;;;;;4995425;28;20034;-58
2023/11/18 05:21:05;;;;;;;1.70;1.10;;;;;;;;;;5012116;28;20056;-58
2023/11/18 05:23:33;;;;;;;3.08;1.30;;;;;;;;;;5013727;28;20034;-58
2023/11/18 05:25:59;;;;;;;1.83;1.38;;;;;;;;;;5014045;28;20038;-57
2023/11/18 05:28:25;;;;;;;1.10;1.00;;;;;;;;;;5015714;28;20042;-57
2023/11/18 05:30:52;;;;;;;1.33;1.23;;;;;;;;;;5011114;28;20122;-57
2023/11/18 05:33:19;;;;;;;3.92;1.20;;;;;;;;;;5006990;28;20041;-57
2023/11/18 05:35:51;;;;;;;1.33;1.00;;;;;;;;;;5014522;28;20038;-57
2023/11/18 05:38:21;;;;;;;2.45;1.17;;;;;;;;;;5007316;28;20026;-58
2023/11/18 05:40:57;;;;;;;1.70;1.02;;;;;;;;;;5007758;28;20052;-57
2023/11/18 05:43:36;;;;;;;2.30;1.30;;;;;;;;;;4998047;28;20506;-57
2023/11/18 05:46:20;;;;;;;1.65;1.30;;;;;;;;;;5011543;28;20034;-57
2023/11/18 05:48:48;;;;;;;1.83;1.00;;;;;;;;;;5010674;28;20041;-57
2023/11/18 05:51:14;;;;;;;1.15;0.95;;;;;;;;;;5006618;28;20666;-57
2023/11/18 05:53:45;;;;;;;1.77;1.30;;;;;;;;;;5014036;28;20030;-56
2023/11/18 05:56:12;;;;;;;1.67;1.25;;;;;;;;;;5013778;28;20032;-57
2023/11/18 05:58:43;;;;;;;1.33;1.23;;;;;;;;;;5014327;28;20049;-57
2023/11/18 06:01:10;;;;;;;2.13;1.40;;;;;;;;;;5008566;28;20057;-56
2023/11/18 06:03:38;;;;;;;4.03;1.27;;;;;;;;;;5009066;28;20041;-58
2023/11/18 06:06:09;;;;;;;3.90;1.20;;;;;;;;;;5006590;28;20049;-56
2023/11/18 06:08:42;;;;;;;1.83;1.30;;;;;;;;;;5008405;28;20833;-58
2023/11/18 06:11:13;;;;;;;3.70;1.50;;;;;;;;;;5007354;28;20037;-58
2023/11/18 06:13:42;;;;;;;2.33;1.60;;;;;;;;;;5008791;28;20046;-57
2023/11/18 06:16:16;;;;;;;1.25;1.15;;;;;;;;;;5015815;28;20030;-58
2023/11/18 06:18:44;;;;;;;2.35;1.52;;;;;;;;;;5009627;28;20439;-58
2023/11/18 06:21:12;;;;;;;3.20;1.50;;;;;;;;;;5006748;28;20438;-58
2023/11/18 06:23:38;;;;;;;2.33;1.23;;;;;;;;;;5011536;28;20045;-58
2023/11/18 06:26:04;;;;;;;1.15;1.05;;;;;;;;;;5018339;28;20502;-57
2023/11/18 06:28:32;;;;;;;1.55;1.20;;;;;;;;;;5015421;28;20057;-57
2023/11/18 06:30:58;;;;;;;2.78;1.23;;;;;;;;;;5011605;28;20050;-57
2023/11/18 06:33:27;;;;;;;2.17;1.55;;;;;;;;;;5018605;28;20545;-56
2023/11/18 06:35:55;;;;;;;1.63;1.40;;;;;;;;;;5014379;28;20034;-58
2023/11/18 06:38:22;;;;;;;2.80;1.20;;;;;;;;;;5012123;28;20033;-57
2023/11/18 06:40:52;;;;;;;3.00;2.42;;;;;;;;;;5010877;28;20026;-58
2023/11/18 06:43:19;;;;;;;3.05;1.55;;;;;;;;;;5012661;28;20051;-58
2023/11/18 06:45:46;;;;;;;3.47;1.50;;;;;;;;;;5015578;28;20037;-57
2023/11/18 06:48:14;;;;;;;1.90;1.50;;;;;;;;;;5009566;28;20038;-58
2023/11/18 06:50:44;;;;;;;4.50;1.75;;;;;;;;;;5015262;28;20060;-57
2023/11/18 06:53:11;;;;;;;2.10;1.60;;;;;;;;;;5011630;28;20053;-56
2023/11/18 06:55:37;;;;;;;3.55;1.80;;;;;;;;;;5014972;28;20033;-57
2023/11/18 06:58:03;;;;;;;2.17;1.60;;;;;;;;;;5016824;28;20041;-57
2023/11/18 07:00:29;;;;;;;1.80;1.52;;;;;;;;;;5009299;28;20029;-57
2023/11/18 07:02:57;;;;;;;9.50;6.13;;;;;;;;;;4997744;28;20034;-57
2023/11/18 07:05:24;;;;;;;5.05;3.20;;;;;;;;;;5016924;28;20109;-57
2023/11/18 07:07:50;;;;;;;2.47;1.70;;;;;;;;;;5014173;28;20029;-57
2023/11/18 07:10:20;;;;;;;3.28;2.05;;;;;;;;;;5016377;28;20034;-57
2023/11/18 07:12:49;;;;;;;3.85;1.83;;;;;;;;;;5011029;28;20022;-57
2023/11/18 07:15:16;;;;;;;2.38;1.45;;;;;;;;;;5019495;28;20073;-57
2023/11/18 07:17:42;;;;;;;2.45;1.58;;;;;;;;;;5019695;28;20049;-56
2023/11/18 07:20:12;;;;;;;2.28;1.95;;;;;;;;;;5009720;28;20061;-57
2023/11/18 07:22:39;;;;;;;2.95;2.08;;;;;;;;;;5005941;28;20026;-57
2023/11/18 07:25:06;;;;;;;3.63;1.48;;;;;;;;;;5009646;28;20034;-57
2023/11/18 07:27:36;;;;;;;2.28;1.80;;;;;;;;;;5018264;28;20048;-56
2023/11/18 07:30:03;;;;;;;2.60;1.83;;;;;;;;;;5017372;28;20033;-57
2023/11/18 07:32:30;;;;;;;5.68;2.08;;;;;;;;;;5015732;28;20045;-56
2023/11/18 07:34:56;;;;;;;4.35;2.30;;;;;;;;;;5012686;28;20033;-56
2023/11/18 07:37:22;;;;;;;7.93;3.58;;;;;;;;;;5015810;28;20037;-58
2023/11/18 07:39:48;;;;;;;5.97;2.72;;;;;;;;;;5012827;28;20038;-57
2023/11/18 07:42:15;;;;;;;3.30;2.40;;;;;;;;;;5013861;28;20030;-58
2023/11/18 07:44:41;;;;;;;2.45;1.85;;;;;;;;;;5010972;28;20041;-57
2023/11/18 07:47:07;;;;;;;5.95;2.85;;;;;;;;;;5010537;28;20067;-56
2023/11/18 07:49:35;;;;;;;7.80;3.95;;;;;;;;;;4993365;28;20045;-56
2023/11/18 07:52:02;;;;;;;11.85;4.50;;;;;;;;;;5013952;28;20037;-57
2023/11/18 07:54:28;;;;;;;30.50;10.90;;;;;;;;;;5015680;28;20514;-57
2023/11/18 07:56:54;;;;;;;23.75;9.43;;;;;;;;;;5011359;28;20414;-57
2023/11/18 07:59:21;;;;;;;11.85;5.57;;;;;;;;;;4992630;28;20034;-59
2023/11/18 08:01:48;;;;;;;3.97;2.83;;;;;;;;;;5008062;28;20522;-57
2023/11/18 08:04:14;;;;;;;5.85;2.83;;;;;;;;;;5009028;28;20045;-56
2023/11/18 08:06:42;;;;;;;4.25;2.35;;;;;;;;;;5022225;28;20049;-56
2023/11/18 08:09:12;;;;;;;5.22;2.55;;;;;;;;;;5009056;28;20758;-56
2023/11/18 08:11:41;;;;;;;5.47;2.20;;;;;;;;;;5010795;28;20036;-56
2023/11/18 08:14:10;;;;;;;7.00;2.50;;;;;;;;;;5013767;28;20030;-57
2023/11/18 08:16:36;;;;;;;4.68;3.17;;;;;;;;;;5008211;28;20037;-58
2023/11/18 08:19:03;;;;;;;4.93;2.80;;;;;;;;;;5008206;28;20050;-57
2023/11/18 08:21:29;;;;;;;6.28;4.20;;;;;;;;;;5007322;28;20060;-57
2023/11/18 08:23:55;;;;;;;4.40;2.95;;;;;;;;;;5009482;28;20037;-58
2023/11/18 08:26:21;;;;;;;4.47;2.90;;;;;;;;;;5012044;28;20050;-58
2023/11/18 08:28:48;;;;;;;5.38;3.30;;;;;;;;;;5013986;28;20037;-57
2023/11/18 08:31:17;;;;;;;4.18;2.78;;;;;;;;;;5012969;28;20041;-57
2023/11/18 08:33:43;;;;;;;4.45;2.45;;;;;;;;;;5013440;28;20040;-57
2023/11/18 08:36:12;;;;;;;6.35;2.55;;;;;;;;;;5013300;28;20398;-57
2023/11/18 08:38:40;;;;;;;5.32;2.53;;;;;;;;;;5011515;28;20033;-57
2023/11/18 08:41:08;;;;;;;4.55;2.30;;;;;;;;;;5012326;28;20411;-57
2023/11/18 08:43:35;;;;;;;4.10;2.17;;;;;;;;;;5010722;28;20502;-56
2023/11/18 08:46:01;;;;;;;3.33;2.40;;;;;;;;;;5012942;28;20037;-58
2023/11/18 08:48:28;;;;;;;3.75;2.28;;;;;;;;;;5009930;28;20029;-57
2023/11/18 08:50:54;;;;;;;3.72;1.80;;;;;;;;;;5006927;28;20248;-57
2023/11/18 08:53:25;;;;;;;3.90;2.13;;;;;;;;;;5008350;28;20026;-57
2023/11/18 08:55:53;;;;;;;3.65;2.38;;;;;;;;;;5010579;28;20041;-57
2023/11/18 08:58:21;;;;;;;9.32;5.28;;;;;;;;;;5008433;28;20030;-57
2023/11/18 09:00:53;;;;;;;7.67;3.47;;;;;;;;;;5007766;28;20052;-58
2023/11/18 09:03:27;;;;;;;3.08;1.95;;;;;;;;;;5012154;28;20034;-56
2023/11/18 09:05:58;;;;;;;4.70;2.40;;;;;;;;;;5011991;28;20052;-57
2023/11/18 09:08:29;;;;;;;6.25;1.98;;;;;;;;;;5009332;28;20047;-58
2023/11/18 09:10:59;;;;;;;4.47;2.75;;;;;;;;;;5014180;28;20040;-57
2023/11/18 09:13:29;;;;;;;4.43;3.05;;;;;;;;;;5008585;28;20054;-57
2023/11/18 09:15:56;;;;;;;;;;;;;;;;;;5010940;28;20069;-59
2023/11/18 09:18:24;;;;;;;5.15;2.00;;;;;;;;;;5009637;28;19914;-57
2023/11/18 09:20:52;;;;;;;2.72;2.20;;;;;;;;;;5007556;28;20518;-58
2023/11/18 09:23:19;;;;;;;4.72;1.95;;;;;;;;;;5008183;28;20053;-57
2023/11/18 09:25:48;;;;;;;5.03;2.08;;;;;;;;;;5011851;28;20048;-58
2023/11/18 09:28:14;;;;;;;1.97;1.57;;;;;;;;;;5008484;28;20038;-58
2023/11/18 09:30:49;;;;;;;3.30;1.70;;;;;;;;;;5000208;28;20284;-60
2023/11/18 09:33:25;;;;;;;2.53;1.60;;;;;;;;;;5006729;28;20116;-58
2023/11/18 09:35:58;;;;;;;7.88;3.22;;;;;;;;;;5009431;28;20036;-59
2023/11/18 09:38:32;;;;;;;8.65;2.97;;;;;;;;;;5008140;28;20029;-58
2023/11/18 09:41:02;;;;;;;3.13;2.10;;;;;;;;;;5011929;28;20029;-60
2023/11/18 09:43:47;;;;;;;8.90;2.70;;;;;;;;;;5012040;28;20060;-59
2023/11/18 09:46:14;;;;;;;5.30;2.05;;;;;;;;;;5004499;28;20637;-58
2023/11/18 09:48:52;;;;;;;2.60;1.83;;;;;;;;;;5009602;28;20026;-59
2023/11/18 09:51:23;;;;;;;5.97;2.50;;;;;;;;;;5006548;28;20034;-59
2023/11/18 09:53:53;;;;;;;11.15;3.63;;;;;;;;;;5012282;28;20041;-60
2023/11/18 09:56:37;;;;;;;16.90;4.28;;;;;;;;;;5007854;28;20046;-59
2023/11/18 09:59:15;;;;;;;15.90;5.03;;;;;;;;;;5012863;28;20113;-60
2023/11/18 10:01:46;;;;;;;11.25;3.63;;;;;;;;;;5010224;28;20049;-59
2023/11/18 10:04:17;;;;;;;12.50;3.20;;;;;;;;;;5011594;28;20037;-59
2023/11/18 10:06:45;;;;;;;7.53;3.05;;;;;;;;;;5007801;28;20407;-60
2023/11/18 10:09:19;;;;;;;4.13;1.45;;;;;;;;;;5017994;28;20029;-61
2023/11/18 10:11:48;;;;;;;5.68;2.28;;;;;;;;;;5017602;28;20041;-59
2023/11/18 10:14:15;;;;;;;4.53;2.22;;;;;;;;;;5011946;28;20060;-61
2023/11/18 10:16:46;;;;;;;7.80;2.40;;;;;;;;;;5001504;28;20402;-60
2023/11/18 10:19:14;;;;;;;5.65;2.00;;;;;;;;;;5009326;28;20042;-60
2023/11/18 10:21:40;;;;;;;4.53;1.75;;;;;;;;;;5010793;28;20050;-60
2023/11/18 10:24:19;;;;;;;6.40;2.65;;;;;;;;;;5008039;28;20422;-59
2023/11/18 10:26:58;;;;;;;7.25;2.28;;;;;;;;;;5009998;28;20044;-59
2023/11/18 10:29:27;;;;;;;7.47;2.67;;;;;;;;;;5009443;28;20030;-59
2023/11/18 10:32:07;;;;;;;;;;;;;;;;;;5006276;28;20050;-60
2023/11/18 10:34:35;;;;;;;7.55;2.60;;;;;;;;;;5008055;28;19920;-60
2023/11/18 10:37:02;;;;;;;7.70;2.13;;;;;;;;;;5007786;28;20779;-60
2023/11/18 10:39:31;;;;;;;7.38;2.30;;;;;;;;;;5012340;28;20038;-58
2023/11/18 10:42:01;;;;;;;6.93;2.50;;;;;;;;;;5008369;28;20037;-58
2023/11/18 10:44:29;;;;;;;5.55;2.42;;;;;;;;;;5009324;28;20041;-61
2023/11/18 10:46:58;;;;;;;9.10;2.10;;;;;;;;;;5007832;28;20057;-60
2023/11/18 10:49:36;;;;;;;3.35;2.10;;;;;;;;;;5007612;28;20029;-58
2023/11/18 10:52:06;;;;;;;6.72;2.17;;;;;;;;;;5011164;28;20050;-60
2023/11/18 10:54:34;;;;;;;9.65;4.78;;;;;;;;;;5008960;28;20396;-60
2023/11/18 10:57:07;;;;;;;5.18;2.00;;;;;;;;;;5010384;28;20494;-61
2023/11/18 10:59:33;;;;;;;3.42;1.90;;;;;;;;;;5009382;28;20526;-60
2023/11/18 11:02:01;;;;;;;5.10;2.13;;;;;;;;;;5009163;28;20041;-59
2023/11/18 11:04:43;;;;;;;2.90;1.58;;;;;;;;;;5010098;28;20041;-60
2023/11/18 11:07:10;;;;;;;2.65;1.30;;;;;;;;;;5009953;28;20575;-60
2023/11/18 11:09:41;;;;;;;3.55;2.17;;;;;;;;;;5016143;28;20033;-63
2023/11/18 11:12:16;;;;;;;7.75;1.88;;;;;;;;;;5009612;28;20037;-61
2023/11/18 11:14:59;;;;;;;6.45;2.03;;;;;;;;;;5025026;28;20614;-61
2023/11/18 11:17:30;;;;;;;7.22;1.80;;;;;;;;;;5007070;28;20057;-60
2023/11/18 11:20:11;;;;;;;9.38;2.65;;;;;;;;;;5012036;28;20042;-60
2023/11/18 11:22:41;;;;;;;5.72;2.10;;;;;;;;;;5007749;28;20041;-57
2023/11/18 11:25:21;;;;;;;3.45;1.90;;;;;;;;;;5010466;28;20591;-58
2023/11/18 11:28:01;;;;;;;11.95;3.10;;;;;;;;;;5010544;28;20395;-60
2023/11/18 11:31:00;;;;;;;9.18;2.90;;;;;;;;;;5009059;28;20042;-60
2023/11/18 11:33:41;;;;;;;4.00;1.93;;;;;;;;;;5010691;28;20053;-60
2023/11/18 11:36:12;;;;;;;7.68;2.10;;;;;;;;;;5008852;28;20297;-60
2023/11/18 11:38:39;;;;;;;4.53;1.92;;;;;;;;;;5009669;28;20041;-60
2023/11/18 11:41:07;;;;;;;6.07;2.20;;;;;;;;;;5008285;28;20046;-60
2023/11/18 11:43:37;;;;;;;5.00;2.08;;;;;;;;;;5010992;28;20080;-60
2023/11/18 11:46:09;;;;;;;;;;;;;;;;;;5009899;28;20037;-59
2023/11/18 11:48:43;;;;;;;9.10;3.15;;;;;;;;;;5010153;28;19917;-57
2023/11/18 11:51:48;;;;;;;8.85;2.78;;;;;;;;;;5012908;28;20045;-60
2023/11/18 11:54:28;;;;;;;5.25;2.22;;;;;;;;;;5001131;28;20038;-60
2023/11/18 11:57:00;;;;;;;6.00;2.80;;;;;;;;;;5013513;28;20498;-60
2023/11/18 11:59:44;;;;;;;10.13;2.25;;;;;;;;;;5012189;28;20046;-60
2023/11/18 12:02:15;;;;;;;4.07;1.98;;;;;;;;;;5006059;28;20526;-58
2023/11/18 12:04:45;;;;;;;10.40;3.65;;;;;;;;;;5013609;28;20404;-59
2023/11/18 12:07:15;;;;;;;5.00;2.88;;;;;;;;;;5015740;28;20113;-60
2023/11/18 12:09:43;;;;;;;6.03;2.50;;;;;;;;;;5014406;28;20033;-57
2023/11/18 12:12:26;;;;;;;3.53;1.92;;;;;;;;;;5011876;28;20535;-59
2023/11/18 12:14:56;;;;;;;3.40;2.30;;;;;;;;;;5012962;28;20041;-59
2023/11/18 12:17:24;;;;;;;3.72;1.77;;;;;;;;;;5009696;28;20092;-59
2023/11/18 12:19:57;;;;;;;2.35;1.70;;;;;;;;;;4998211;28;20061;-58
2023/11/18 12:22:26;;;;;;;3.95;2.00;;;;;;;;;;5000986;28;20045;-59
2023/11/18 12:24:58;;;;;;;8.07;3.20;;;;;;;;;;5010924;28;20045;-59
2023/11/18 12:28:00;;;;;;;3.90;2.70;;;;;;;;;;5007178;28;20499;-59
2023/11/18 12:30:29;;;;;;;3.30;2.13;;;;;;;;;;5007697;28;20061;-59
2023/11/18 12:33:10;;;;;;;;;;;;;;;;;;5008150;28;20578;-58
2023/11/18 12:35:36;;;;;;;6.43;3.38;;;;;;;;;;4994313;28;19918;-58
2023/11/18 12:38:15;;;;;;;6.85;2.50;;;;;;;;;;5007701;28;20041;-57
2023/11/18 12:40:56;;;;;;;3.10;2.00;;;;;;;;;;5007693;28;21268;-58
2023/11/18 12:43:51;;;;;;;3.00;2.10;;;;;;;;;;5008395;28;20072;-57
2023/11/18 12:46:24;;;;;;;8.52;3.80;;;;;;;;;;5007252;28;20038;-58
2023/11/18 12:48:56;;;;;;;5.20;2.55;;;;;;;;;;5012217;28;20045;-57
2023/11/18 12:51:22;;;;;;;2.58;2.05;;;;;;;;;;5016133;28;20044;-58
2023/11/18 12:53:53;;;;;;;4.63;2.10;;;;;;;;;;5011790;28;20038;-58
2023/11/18 12:56:20;;;;;;;3.92;2.22;;;;;;;;;;5007348;28;20392;-58
2023/11/18 12:58:47;;;;;;;2.88;1.98;;;;;;;;;;5006771;28;20044;-58
2023/11/18 13:01:15;;;;;;;4.85;2.30;;;;;;;;;;5004583;28;20050;-59
2023/11/18 13:03:44;;;;;;;4.35;3.03;;;;;;;;;;5009374;28;20475;-58
2023/11/18 13:06:14;;;;;;;3.17;2.20;;;;;;;;;;5005871;28;20054;-57
2023/11/18 13:08:43;;;;;;;2.75;2.00;;;;;;;;;;5010446;28;20537;-59
2023/11/18 13:11:15;;;;;;;5.22;2.00;;;;;;;;;;5007177;28;20427;-59
2023/11/18 13:13:43;;;;;;;4.60;2.17;;;;;;;;;;5012967;28;20034;-59
2023/11/18 13:16:09;;;;;;;5.65;2.13;;;;;;;;;;5008627;28;20521;-59
2023/11/18 13:18:49;;;;;;;6.18;2.47;;;;;;;;;;5011331;28;20037;-59
2023/11/18 13:21:20;;;;;;;7.65;3.10;;;;;;;;;;5011014;28;20040;-58
2023/11/18 13:23:47;;;;;;;8.00;4.10;;;;;;;;;;5011780;28;20049;-58
2023/11/18 13:26:17;;;;;;;3.88;2.85;;;;;;;;;;5004448;28;20037;-58
2023/11/18 13:28:44;;;;;;;7.85;3.20;;;;;;;;;;5007291;28;20048;-58
2023/11/18 13:31:10;;;;;;;4.80;2.92;;;;;;;;;;5001238;28;20034;-59
2023/11/18 13:33:41;;;;;;;6.40;2.83;;;;;;;;;;5014698;28;20499;-60
2023/11/18 13:36:10;;;;;;;3.05;2.30;;;;;;;;;;5006516;28;20057;-58
2023/11/18 13:38:41;;;;;;;3.80;2.27;;;;;;;;;;4996417;28;20042;-64
2023/11/18 13:41:09;;;;;;;5.45;2.72;;;;;;;;;;5004587;28;20046;-58
2023/11/18 13:43:47;;;;;;;4.28;2.40;;;;;;;;;;4989731;28;20451;-58
2023/11/18 13:46:13;;;;;;;4.57;2.80;;;;;;;;;;5006140;28;20435;-59
2023/11/18 13:48:41;;;;;;;7.57;4.00;;;;;;;;;;5009234;28;20041;-59
2023/11/18 13:51:15;;;;;;;6.50;2.90;;;;;;;;;;5009456;28;20045;-60
2023/11/18 13:53:43;;;;;;;8.13;3.00;;;;;;;;;;5014854;28;20507;-58
2023/11/18 13:56:10;;;;;;;5.47;2.90;;;;;;;;;;5007079;28;20323;-58
2023/11/18 13:58:38;;;;;;;8.13;2.72;;;;;;;;;;5007409;28;20046;-59
2023/11/18 14:01:08;;;;;;;7.00;3.22;;;;;;;;;;5008477;28;20550;-59
2023/11/18 14:03:36;;;;;;;8.60;3.88;;;;;;;;;;5008239;28;20538;-58
2023/11/18 14:06:06;;;;;;;8.05;3.53;;;;;;;;;;5007931;28;20522;-58
2023/11/18 14:08:34;;;;;;;8.85;3.75;;;;;;;;;;5006569;28;20030;-59
2023/11/18 14:11:00;;;;;;;8.23;4.25;;;;;;;;;;5004572;28;20038;-58
2023/11/18 14:13:30;;;;;;;5.50;3.08;;;;;;;;;;5006880;28;20041;-59
2023/11/18 14:15:59;;;;;;;7.65;4.32;;;;;;;;;;5009286;28;20021;-58
2023/11/18 14:18:26;;;;;;;10.43;4.53;;;;;;;;;;5005634;28;20038;-58
2023/11/18 14:20:52;;;;;;;13.50;6.00;;;;;;;;;;5004045;28;20296;-59
2023/11/18 14:23:22;;;;;;;8.43;4.78;;;;;;;;;;5011687;28;20057;-59
2023/11/18 14:25:48;;;;;;;8.70;4.93;;;;;;;;;;5007752;28;20046;-59
2023/11/18 14:28:15;;;;;;;6.63;3.75;;;;;;;;;;5003002;28;20034;-59
2023/11/18 14:30:41;;;;;;;6.97;3.90;;;;;;;;;;5003470;28;20052;-58
2023/11/18 14:33:08;;;;;;;5.15;3.50;;;;;;;;;;5008413;28;20495;-58
2023/11/18 14:35:34;;;;;;;6.03;3.75;;;;;;;;;;5005081;28;20049;-58
2023/11/18 14:38:01;;;;;;;8.98;4.63;;;;;;;;;;5003737;28;20655;-59
2023/11/18 14:40:27;;;;;;;6.45;4.05;;;;;;;;;;5004391;28;20054;-59
2023/11/18 14:42:54;;;;;;;8.05;4.05;;;;;;;;;;5004014;28;20053;-59
2023/11/18 14:45:21;;;;;;;6.47;3.70;;;;;;;;;;5013699;28;20048;-59
2023/11/18 14:47:48;;;;;;;7.28;4.00;;;;;;;;;;5017107;28;20029;-58
2023/11/18 14:50:19;;;;;;;4.82;2.92;;;;;;;;;;5009365;28;20383;-58
2023/11/18 14:52:51;;;;;;;5.22;2.80;;;;;;;;;;5010899;28;20053;-58
2023/11/18 14:55:18;;;;;;;8.15;3.33;;;;;;;;;;5005359;28;20041;-59